createdAt,value
2023-01-11T00:01:33.323Z,1.83
2023-01-11T00:04:00.999Z,2.00
2023-01-11T00:06:28.705Z,1.70
2023-01-11T00:08:56.426Z,1.77
2023-01-11T00:11:28.570Z,2.13
2023-01-11T00:13:56.286Z,1.90
2023-01-11T00:16:27.590Z,1.95
2023-01-11T00:18:55.377Z,1.88
2023-01-11T00:21:23.255Z,1.60
2023-01-11T00:23:51.537Z,1.77
2023-01-11T00:26:19.326Z,2.00
2023-01-11T00:28:50.695Z,1.95
2023-01-11T00:31:18.681Z,1.60
2023-01-11T00:33:46.401Z,1.60
2023-01-11T00:36:14.117Z,2.17
2023-01-11T00:38:47.139Z,1.88
2023-01-11T00:41:33.930Z,1.70
2023-01-11T00:44:21.122Z,2.13
2023-01-11T00:47:06.684Z,1.80
2023-01-11T00:49:34.451Z,1.80
2023-01-11T00:52:14.499Z,1.73
2023-01-11T00:54:43.572Z,1.70
2023-01-11T00:57:11.504Z,1.58
2023-01-11T00:59:40.870Z,1.98
2023-01-11T01:02:09.598Z,1.77
2023-01-11T01:04:37.777Z,1.75
2023-01-11T01:07:06.077Z,1.40
2023-01-11T01:09:34.200Z,2.00
2023-01-11T01:12:02.937Z,1.70
2023-01-11T01:14:30.057Z,1.50
2023-01-11T01:17:01.617Z,1.90
2023-01-11T01:19:30.400Z,1.42
2023-01-11T01:22:00.033Z,1.67
2023-01-11T01:24:29.219Z,1.40
2023-01-11T01:26:57.184Z,1.50
2023-01-11T01:29:25.340Z,1.75
2023-01-11T01:31:53.059Z,1.73
2023-01-11T01:34:25.035Z,1.67
2023-01-11T01:36:53.302Z,1.80
2023-01-11T01:39:21.015Z,1.60
2023-01-11T01:41:51.232Z,1.67
2023-01-11T01:44:54.861Z,1.50
2023-01-11T01:47:27.006Z,2.17
2023-01-11T01:49:57.010Z,1.40
2023-01-11T01:52:28.952Z,1.70
2023-01-11T01:55:03.710Z,1.77
2023-01-11T01:57:35.305Z,1.77
2023-01-11T02:00:06.629Z,1.25
2023-01-11T02:02:34.822Z,1.50
2023-01-11T02:05:04.507Z,1.45
2023-01-11T02:07:35.248Z,1.65
2023-01-11T02:10:06.571Z,1.50
2023-01-11T02:12:38.545Z,1.20
2023-01-11T02:15:07.754Z,1.40
2023-01-11T02:17:35.493Z,1.60
2023-01-11T02:20:27.358Z,1.67
2023-01-11T02:23:21.171Z,1.30
2023-01-11T02:26:24.914Z,1.88
2023-01-11T02:28:56.980Z,1.50
2023-01-11T02:31:32.416Z,1.55
2023-01-11T02:36:44.403Z,1.52
2023-01-11T02:39:17.793Z,1.58
2023-01-11T02:42:09.341Z,1.40
2023-01-11T02:45:06.385Z,1.30
2023-01-11T02:47:45.214Z,1.50
2023-01-11T02:50:23.417Z,1.70
2023-01-11T02:53:00.976Z,1.27
2023-01-11T02:55:33.104Z,1.15
2023-01-11T02:58:03.841Z,1.40
2023-01-11T03:00:34.269Z,1.40
2023-01-11T03:03:15.298Z,1.23
2023-01-11T03:05:47.844Z,1.23
2023-01-11T03:08:44.471Z,1.30
2023-01-11T03:11:36.462Z,1.35
2023-01-11T03:14:11.005Z,1.40
2023-01-11T03:16:47.296Z,1.60
2023-01-11T03:19:26.910Z,1.30
2023-01-11T03:22:04.853Z,1.58
2023-01-11T03:24:40.035Z,1.50
2023-01-11T03:27:18.859Z,1.40
2023-01-11T03:29:54.801Z,1.50
2023-01-11T03:32:33.490Z,2.35
2023-01-11T03:35:11.973Z,1.45
2023-01-11T03:37:43.992Z,1.55
2023-01-11T03:40:17.136Z,1.67
2023-01-11T03:43:10.326Z,1.70
2023-01-11T03:45:42.695Z,1.40
2023-01-11T03:48:17.649Z,1.40
2023-01-11T03:50:48.267Z,1.40
2023-01-11T03:53:20.452Z,1.63
2023-01-11T03:55:52.586Z,1.35
2023-01-11T03:58:20.788Z,1.45
2023-01-11T04:00:49.815Z,1.77
2023-01-11T04:03:19.200Z,1.52
2023-01-11T04:05:52.002Z,1.45
2023-01-11T04:08:19.783Z,1.35
2023-01-11T04:10:47.537Z,1.10
2023-01-11T04:13:15.248Z,1.30
2023-01-11T04:15:45.445Z,1.33
2023-01-11T04:18:13.143Z,1.60
2023-01-11T04:20:42.325Z,0.93
2023-01-11T04:23:11.161Z,1.00
2023-01-11T04:25:41.421Z,1.02
2023-01-11T04:28:09.088Z,1.05
2023-01-11T04:30:37.218Z,1.30
2023-01-11T04:33:04.991Z,1.20
2023-01-11T04:35:32.700Z,1.13
2023-01-11T04:38:01.749Z,1.05
2023-01-11T04:40:29.430Z,0.93
2023-01-11T04:42:56.103Z,0.90
2023-01-11T04:45:24.434Z,1.10
2023-01-11T04:47:55.019Z,1.20
2023-01-11T04:50:23.875Z,0.93
2023-01-11T04:52:52.221Z,1.10
2023-01-11T04:55:21.340Z,1.20
2023-01-11T04:57:49.003Z,1.20
2023-01-11T05:00:20.397Z,1.20
2023-01-11T05:02:51.169Z,1.08
2023-01-11T05:05:18.886Z,0.85
2023-01-11T05:07:46.505Z,1.20
2023-01-11T05:10:14.133Z,1.42
2023-01-11T05:12:43.194Z,1.20
2023-01-11T05:15:11.214Z,1.15
2023-01-11T05:17:38.918Z,1.15
2023-01-11T05:20:07.191Z,1.05
2023-01-11T05:22:34.826Z,1.25
2023-01-11T05:25:02.502Z,0.90
2023-01-11T05:27:30.154Z,1.10
2023-01-11T05:29:59.207Z,0.93
2023-01-11T05:32:26.931Z,0.98
2023-01-11T05:34:54.579Z,1.05
2023-01-11T05:37:22.395Z,1.00
2023-01-11T05:39:50.054Z,1.30
2023-01-11T05:42:17.734Z,1.17
2023-01-11T05:45:03.207Z,0.90
2023-01-11T05:47:32.243Z,1.05
2023-01-11T05:50:03.138Z,1.05
2023-01-11T05:52:30.749Z,1.20
2023-01-11T05:54:59.276Z,1.35
2023-01-11T05:57:26.925Z,1.15
2023-01-11T05:59:54.588Z,0.82
2023-01-11T06:02:22.346Z,1.00
2023-01-11T06:04:55.531Z,1.33
2023-01-11T06:07:24.976Z,1.15
2023-01-11T06:09:52.648Z,0.88
2023-01-11T06:12:20.295Z,1.10
2023-01-11T06:14:48.189Z,1.10
2023-01-11T06:17:15.819Z,0.90
2023-01-11T06:19:43.472Z,1.00
2023-01-11T06:22:12.455Z,1.05
2023-01-11T06:24:40.183Z,0.90
2023-01-11T06:27:09.615Z,0.90
2023-01-11T06:29:37.290Z,1.00
2023-01-11T06:32:05.197Z,0.93
2023-01-11T06:34:32.841Z,0.93
2023-01-11T06:37:00.482Z,1.00
2023-01-11T06:39:29.567Z,1.20
2023-01-11T06:41:57.219Z,0.88
2023-01-11T06:44:27.260Z,0.88
2023-01-11T06:46:54.896Z,1.05
2023-01-11T06:49:22.552Z,1.20
2023-01-11T06:51:50.204Z,1.10
2023-01-11T06:54:23.797Z,1.00
2023-01-11T06:56:52.810Z,1.20
2023-01-11T06:59:20.474Z,1.13
2023-01-11T07:01:48.300Z,0.82
2023-01-11T07:04:17.110Z,1.33
2023-01-11T07:06:47.473Z,0.80
2023-01-11T07:09:15.109Z,1.30
2023-01-11T07:11:42.779Z,0.90
2023-01-11T07:14:12.128Z,1.10
2023-01-11T07:16:39.773Z,1.10
2023-01-11T07:19:07.521Z,0.95
2023-01-11T07:21:35.180Z,1.05
2023-01-11T07:24:02.803Z,1.20
2023-01-11T07:26:31.385Z,1.25
2023-01-11T07:28:59.082Z,1.00
2023-01-11T07:31:34.010Z,1.15
2023-01-11T07:34:01.687Z,1.20
2023-01-11T07:36:29.929Z,1.30
2023-01-11T07:38:57.686Z,0.95
2023-01-11T07:41:43.142Z,0.85
2023-01-11T07:44:10.806Z,0.90
2023-01-11T07:46:39.915Z,1.10
2023-01-11T07:49:07.661Z,1.00
2023-01-11T07:51:35.340Z,0.93
2023-01-11T07:54:05.312Z,0.85
2023-01-11T07:56:33.047Z,1.40
2023-01-11T07:59:00.662Z,1.15
2023-01-11T08:01:28.343Z,1.08
2023-01-11T08:03:57.341Z,1.10
2023-01-11T08:06:25.044Z,1.00
2023-01-11T08:08:52.773Z,1.10
2023-01-11T08:11:40.233Z,1.17
2023-01-11T08:14:25.540Z,1.00
2023-01-11T08:16:53.225Z,1.25
2023-01-11T08:19:22.262Z,1.17
2023-01-11T08:21:51.556Z,1.00
2023-01-11T08:24:19.315Z,1.00
2023-01-11T08:26:47.041Z,1.08
2023-01-11T08:29:14.711Z,1.10
2023-01-11T08:31:44.819Z,1.23
2023-01-11T08:34:12.539Z,1.10
2023-01-11T08:36:41.604Z,1.20
2023-01-11T08:39:09.481Z,1.13
2023-01-11T08:41:38.280Z,1.10
2023-01-11T08:44:06.760Z,1.00
2023-01-11T08:46:34.891Z,1.20
2023-01-11T08:49:02.958Z,1.02
2023-01-11T08:51:30.962Z,1.20
2023-01-11T08:53:59.989Z,1.20
2023-01-11T08:56:27.654Z,1.50
2023-01-11T08:58:55.344Z,1.50
2023-01-11T09:01:23.030Z,1.05
2023-01-11T09:03:50.764Z,1.13
2023-01-11T09:06:19.290Z,1.02
2023-01-11T09:08:47.701Z,1.27
2023-01-11T09:11:30.922Z,1.10
2023-01-11T09:13:58.609Z,1.20
2023-01-11T09:16:26.349Z,1.30
2023-01-11T09:18:55.581Z,1.30
2023-01-11T09:21:23.791Z,1.25
2023-01-11T09:23:51.505Z,0.90
2023-01-11T09:26:20.539Z,1.17
2023-01-11T09:28:48.273Z,1.00
2023-01-11T09:31:18.232Z,1.08
2023-01-11T09:33:45.989Z,1.17
2023-01-11T09:36:18.878Z,1.30
2023-01-11T09:38:47.165Z,1.13
2023-01-11T09:41:32.017Z,1.30
2023-01-11T09:44:10.248Z,0.98
2023-01-11T09:46:42.778Z,0.93
2023-01-11T09:49:18.993Z,1.00
2023-01-11T09:51:49.838Z,1.20
2023-01-11T09:54:23.445Z,1.67
2023-01-11T09:57:07.790Z,0.98
2023-01-11T09:59:46.678Z,1.05
2023-01-11T10:02:23.432Z,1.08
2023-01-11T10:05:11.824Z,0.90
2023-01-11T10:18:25.904Z,1.10
2023-01-11T10:19:39.972Z,1.02
2023-01-11T10:22:12.884Z,1.30
2023-01-11T10:24:45.439Z,1.20
2023-01-11T10:27:21.240Z,1.38
2023-01-11T10:30:12.668Z,1.42
2023-01-11T10:33:06.443Z,1.20
2023-01-11T10:35:58.924Z,1.33
2023-01-11T10:38:46.490Z,1.30
2023-01-11T10:41:26.231Z,1.30
2023-01-11T10:44:05.058Z,1.20
2023-01-11T10:46:39.728Z,1.50
2023-01-11T10:49:30.089Z,1.50
2023-01-11T10:52:04.648Z,1.55
2023-01-11T10:54:35.598Z,1.17
2023-01-11T10:57:17.948Z,1.10
2023-01-11T11:00:18.439Z,1.10
2023-01-11T11:03:10.110Z,1.40
2023-01-11T11:05:43.043Z,1.10
2023-01-11T11:08:17.345Z,1.15
2023-01-11T11:10:52.806Z,1.10
2023-01-11T11:13:24.605Z,1.10
2023-01-11T11:15:58.825Z,1.05
2023-01-11T11:18:28.497Z,1.55
2023-01-11T11:21:01.299Z,1.30
2023-01-11T11:23:30.088Z,1.40
2023-01-11T11:26:00.879Z,1.13
2023-01-11T11:28:30.846Z,1.45
2023-01-11T11:31:00.568Z,1.23
2023-01-11T11:33:35.972Z,1.13
2023-01-11T11:36:05.834Z,1.17
2023-01-11T11:38:35.919Z,1.02
2023-01-11T11:41:07.939Z,1.40
2023-01-11T11:43:36.683Z,0.95
2023-01-11T11:46:06.345Z,1.30
2023-01-11T11:48:36.182Z,1.33
2023-01-11T11:51:06.190Z,1.05
2023-01-11T11:53:42.952Z,1.00
2023-01-11T11:56:21.714Z,1.17
2023-01-11T11:58:49.857Z,1.38
2023-01-11T12:01:24.723Z,1.48
2023-01-11T12:03:57.548Z,1.40
2023-01-11T12:06:28.001Z,1.30
2023-01-11T12:08:57.451Z,1.10
2023-01-11T12:11:32.546Z,1.55
2023-01-11T12:14:03.979Z,1.40
2023-01-11T12:16:36.131Z,1.45
2023-01-11T12:19:05.255Z,1.33
2023-01-11T12:21:32.936Z,1.50
2023-01-11T12:24:17.128Z,1.50
2023-01-11T12:26:54.328Z,1.35
2023-01-11T12:29:48.675Z,1.23
2023-01-11T12:32:47.602Z,1.33
2023-01-11T12:35:31.085Z,1.30
2023-01-11T12:38:14.118Z,1.55
2023-01-11T12:40:51.607Z,1.90
2023-01-11T12:43:36.722Z,1.40
2023-01-11T12:46:16.403Z,1.13
2023-01-11T12:49:14.140Z,1.17
2023-01-11T12:52:00.720Z,1.48
2023-01-11T12:54:40.434Z,1.40
2023-01-11T12:57:21.585Z,1.20
2023-01-11T13:00:10.873Z,1.33
2023-01-11T13:03:03.436Z,1.38
2023-01-11T13:05:39.220Z,1.20
2023-01-11T13:08:17.086Z,1.23
2023-01-11T13:10:56.980Z,1.17
2023-01-11T13:13:32.323Z,1.42
2023-01-11T13:16:04.932Z,1.20
2023-01-11T13:18:42.474Z,1.25
2023-01-11T13:21:20.800Z,1.20
2023-01-11T13:23:54.850Z,1.40
2023-01-11T13:26:25.507Z,1.40
2023-01-11T13:28:59.208Z,1.10
2023-01-11T13:31:27.737Z,1.23
2023-01-11T13:34:02.408Z,1.33
2023-01-11T13:36:38.679Z,1.20
2023-01-11T13:39:14.676Z,1.45
2023-01-11T13:41:47.717Z,1.20
2023-01-11T13:44:22.152Z,1.40
2023-01-11T13:47:07.970Z,1.55
2023-01-11T13:49:52.592Z,1.42
2023-01-11T13:52:23.475Z,1.73
2023-01-11T13:54:59.346Z,1.65
2023-01-11T13:57:35.227Z,1.27
2023-01-11T14:00:08.364Z,1.40
2023-01-11T14:02:43.253Z,1.00
2023-01-11T14:05:16.495Z,0.93
2023-01-11T14:07:55.997Z,0.80
2023-01-11T14:10:40.133Z,1.10
2023-01-11T14:13:58.388Z,1.17
2023-01-11T14:16:32.561Z,1.02
2023-01-11T14:19:07.235Z,0.88
2023-01-11T14:21:43.084Z,0.90
2023-01-11T14:24:12.440Z,0.70
2023-01-11T14:27:07.251Z,0.60
2023-01-11T14:30:11.289Z,0.70
2023-01-11T14:32:59.451Z,0.80
2023-01-11T14:35:53.321Z,0.60
2023-01-11T14:38:55.416Z,0.70
2023-01-11T14:41:51.933Z,0.60
2023-01-11T14:44:43.839Z,0.60
2023-01-11T14:47:36.493Z,0.70
2023-01-11T14:50:15.584Z,0.70
2023-01-11T14:52:45.382Z,0.55
2023-01-11T14:55:20.281Z,0.60
2023-01-11T14:58:03.762Z,0.60
2023-01-11T15:01:15.048Z,0.70
2023-01-11T15:03:57.517Z,0.70
2023-01-11T15:06:25.846Z,0.63
2023-01-11T15:08:56.129Z,0.60
2023-01-11T15:11:39.062Z,1.00
2023-01-11T15:14:22.984Z,0.80
2023-01-11T15:17:14.189Z,1.10
2023-01-11T15:19:44.926Z,0.82
2023-01-11T15:22:27.188Z,0.80
2023-01-11T15:25:03.197Z,1.05
2023-01-11T15:27:35.916Z,0.80
2023-01-11T15:30:06.763Z,0.95
2023-01-11T15:32:36.785Z,0.90
2023-01-11T15:35:33.767Z,0.93
2023-01-11T15:38:11.532Z,1.17
2023-01-11T15:40:42.369Z,0.90
2023-01-11T15:43:45.748Z,0.80
2023-01-11T15:46:54.533Z,1.48
2023-01-11T15:50:15.890Z,1.20
2023-01-11T15:53:08.152Z,1.00
2023-01-11T15:56:17.347Z,0.98
2023-01-11T15:59:17.181Z,0.93
2023-01-11T16:02:07.654Z,0.63
2023-01-11T16:04:41.656Z,1.20
2023-01-11T16:07:20.113Z,1.30
2023-01-11T16:10:07.146Z,1.23
2023-01-11T16:12:53.642Z,9.93
2023-01-11T16:15:35.443Z,2.40
2023-01-11T16:18:12.330Z,2.15
2023-01-11T16:20:42.060Z,2.25
2023-01-11T16:23:18.991Z,2.10
2023-01-11T16:25:55.392Z,1.70
2023-01-11T16:28:23.841Z,1.40
2023-01-11T16:31:01.339Z,1.60
2023-01-11T16:33:32.115Z,1.50
2023-01-11T16:36:08.394Z,1.40
2023-01-11T16:38:46.958Z,1.63
2023-01-11T16:41:17.546Z,1.58
2023-01-11T16:43:54.123Z,3.17
2023-01-11T16:47:08.388Z,1.70
2023-01-11T16:49:37.058Z,1.63
2023-01-11T16:52:38.823Z,1.83
2023-01-11T16:55:18.782Z,2.60
2023-01-11T16:57:53.603Z,4.07
2023-01-11T17:00:25.022Z,1.80
2023-01-11T17:03:16.392Z,2.45
2023-01-11T17:05:55.002Z,2.25
2023-01-11T17:08:27.988Z,2.88
2023-01-11T17:10:58.192Z,3.80
2023-01-11T17:13:54.367Z,2.00
2023-01-11T17:16:24.846Z,2.95
2023-01-11T17:18:54.429Z,3.42
2023-01-11T17:21:25.547Z,2.78
2023-01-11T17:23:56.051Z,2.83
2023-01-11T17:26:26.203Z,2.22
2023-01-11T17:28:58.197Z,2.58
2023-01-11T17:31:29.605Z,1.67
2023-01-11T17:34:03.059Z,2.00
2023-01-11T17:36:31.384Z,1.77
2023-01-11T17:38:59.988Z,3.35
2023-01-11T17:41:46.872Z,2.33
2023-01-11T17:44:36.820Z,3.17
2023-01-11T17:47:08.407Z,5.28
2023-01-11T17:49:38.288Z,3.72
2023-01-11T17:52:11.141Z,4.07
2023-01-11T17:54:38.941Z,2.30
2023-01-11T17:57:07.048Z,2.80
2023-01-11T17:59:36.151Z,2.63
2023-01-11T18:02:11.696Z,3.08
2023-01-11T18:07:11.016Z,3.25
2023-01-11T18:09:45.335Z,2.63
2023-01-11T18:12:16.358Z,3.25
2023-01-11T18:14:52.057Z,4.40
2023-01-11T18:17:38.996Z,4.57
2023-01-11T18:20:38.862Z,7.38
2023-01-11T18:23:22.732Z,9.93
2023-01-11T18:25:51.097Z,2.40
2023-01-11T18:28:40.220Z,2.67
2023-01-11T18:31:09.721Z,2.00
2023-01-11T18:33:41.790Z,2.00
2023-01-11T18:36:20.590Z,1.50
2023-01-11T18:38:48.271Z,1.30
2023-01-11T18:41:35.374Z,1.70
2023-01-11T18:44:04.750Z,1.55
2023-01-11T18:46:33.861Z,1.45
2023-01-11T18:49:01.631Z,1.77
2023-01-11T18:51:32.496Z,1.63
2023-01-11T18:54:00.165Z,1.70
2023-01-11T18:56:28.487Z,1.60
2023-01-11T18:58:58.845Z,1.60
2023-01-11T19:01:26.629Z,1.60
2023-01-11T19:03:55.809Z,1.20
2023-01-11T19:06:23.545Z,1.88
2023-01-11T19:08:51.241Z,1.80
2023-01-11T19:11:18.950Z,1.42
2023-01-11T19:13:47.230Z,1.98
2023-01-11T19:16:15.723Z,2.00
2023-01-11T19:18:43.436Z,2.05
2023-01-11T19:21:13.960Z,2.53
2023-01-11T19:23:42.139Z,2.65
2023-01-11T19:26:09.839Z,2.28
2023-01-11T19:28:37.921Z,1.95
2023-01-11T19:31:07.578Z,2.22
2023-01-11T19:33:35.315Z,2.67
2023-01-11T19:36:06.678Z,2.88
2023-01-11T19:38:36.242Z,2.58
2023-01-11T19:41:05.925Z,2.40
2023-01-11T19:43:33.718Z,2.40
2023-01-11T19:46:02.106Z,2.63
2023-01-11T19:48:31.931Z,2.92
2023-01-11T19:51:02.612Z,2.40
2023-01-11T19:53:30.921Z,2.63
2023-01-11T19:56:03.065Z,3.47
2023-01-11T19:58:33.399Z,3.20
2023-01-11T20:01:09.004Z,3.35
2023-01-11T20:03:40.096Z,2.83
2023-01-11T20:06:08.966Z,2.95
2023-01-11T20:08:38.570Z,3.50
2023-01-11T20:11:10.676Z,3.13
2023-01-11T20:13:38.811Z,3.95
2023-01-11T20:16:07.912Z,3.63
2023-01-11T20:18:35.751Z,4.07
2023-01-11T20:21:04.134Z,4.18
2023-01-11T20:23:32.728Z,4.70
2023-01-11T20:26:01.070Z,3.83
2023-01-11T20:28:30.548Z,4.13
2023-01-11T20:31:01.221Z,4.38
2023-01-11T20:33:29.747Z,4.45
2023-01-11T20:35:57.424Z,4.70
2023-01-11T20:38:25.244Z,4.55
2023-01-11T20:40:52.931Z,4.75
2023-01-11T20:43:20.643Z,4.75
2023-01-11T20:45:57.311Z,5.03
2023-01-11T20:48:25.081Z,4.53
2023-01-11T20:50:52.817Z,4.40
2023-01-11T20:53:23.491Z,3.90
2023-01-11T20:55:52.481Z,3.83
2023-01-11T20:58:20.226Z,3.65
2023-01-11T21:00:48.002Z,4.25
2023-01-11T21:03:19.922Z,3.72
2023-01-11T21:05:50.132Z,3.85
2023-01-11T21:08:17.838Z,2.92
2023-01-11T21:10:45.541Z,3.20
2023-01-11T21:13:13.337Z,2.63
2023-01-11T21:15:41.104Z,3.38
2023-01-11T21:18:08.878Z,3.20
2023-01-11T21:20:38.164Z,2.85
2023-01-11T21:23:05.848Z,3.47
2023-01-11T21:25:34.521Z,3.63
2023-01-11T21:28:03.161Z,3.42
2023-01-11T21:30:30.935Z,2.85
2023-01-11T21:32:58.997Z,2.25
2023-01-11T21:35:27.212Z,2.42
2023-01-11T21:37:56.324Z,4.13
2023-01-11T21:40:24.042Z,3.17
2023-01-11T21:42:51.735Z,3.53
2023-01-11T21:45:19.456Z,3.20
2023-01-11T21:47:47.373Z,3.38
2023-01-11T21:50:15.150Z,2.70
2023-01-11T21:52:42.836Z,3.00
2023-01-11T21:55:12.058Z,3.50
2023-01-11T21:57:39.817Z,2.63
2023-01-11T22:00:09.153Z,2.55
2023-01-11T22:02:36.810Z,2.92
2023-01-11T22:05:04.705Z,2.90
2023-01-11T22:07:32.492Z,2.90
2023-01-11T22:10:04.813Z,2.35
2023-01-11T22:12:35.247Z,2.60
2023-01-11T22:15:03.014Z,2.33
2023-01-11T22:17:30.714Z,2.90
2023-01-11T22:19:58.367Z,2.85
2023-01-11T22:22:26.424Z,2.40
2023-01-11T22:24:54.174Z,2.63
2023-01-11T22:27:21.853Z,2.50
2023-01-11T22:29:52.157Z,2.63
2023-01-11T22:32:19.892Z,2.38
2023-01-11T22:34:47.791Z,2.30
2023-01-11T22:37:15.483Z,2.38
2023-01-11T22:39:43.184Z,2.10
2023-01-11T22:42:10.930Z,2.20
2023-01-11T22:44:38.579Z,2.53
2023-01-11T22:47:07.709Z,2.38
2023-01-11T22:49:35.683Z,1.70
2023-01-11T22:52:03.382Z,2.00
2023-01-11T22:54:31.075Z,2.08
2023-01-11T23:04:40.579Z,1.95
2023-01-11T23:07:08.296Z,1.85
2023-01-11T23:09:35.964Z,1.85
2023-01-11T23:12:21.066Z,2.00
2023-01-11T23:14:48.778Z,1.80
2023-01-11T23:17:19.320Z,1.75
2023-01-11T23:19:47.018Z,1.95
2023-01-11T23:22:16.510Z,2.10
2023-01-11T23:24:44.261Z,1.80
2023-01-11T23:27:12.028Z,2.03
2023-01-11T23:29:39.735Z,1.75
2023-01-11T23:32:07.504Z,2.05
2023-01-11T23:34:36.551Z,1.60
2023-01-11T23:37:05.075Z,2.00
2023-01-11T23:39:32.837Z,2.55
2023-01-11T23:42:17.903Z,2.10
2023-01-11T23:44:48.145Z,2.00
2023-01-11T23:47:21.062Z,2.10
2023-01-11T23:49:50.873Z,2.05
2023-01-11T23:52:19.172Z,1.70
2023-01-11T23:54:46.898Z,1.95
2023-01-11T23:57:15.485Z,1.50
2023-01-11T23:59:43.911Z,1.55
